Wednesday, June 20, 2018, 10:46 AM EDT
Back to Local

KOXC, Oxford, Waterbury-oxford Airport

Location: Oxford, CT, United States Lat: 41.483
Local Time: 10:46 AM EDT (14:46 GMT) Lon: -73.133
Time Zone: US/Eastern Elev: 725 ft

Show me the last for .
Show Decoded

2018-06-20 09:51 METAR KOXC 201351Z 00000KT 10SM CLR 19/11 A2994 RMK AO2 SLP145 T01890111 =
2018-06-20 08:51 METAR KOXC 201251Z 00000KT 10SM CLR 19/11 A2994 RMK AO2 SLP146 T01890106 =
2018-06-20 07:51 METAR KOXC 201151Z 03003KT 10SM CLR 18/11 A2994 RMK AO2 SLP149 T01780106 10183
                 20144 51009 =
2018-06-20 06:51 METAR KOXC 201051Z 03003KT 10SM CLR 17/11 A2994 RMK AO2 SLP146 T01720106 =
2018-06-20 05:51 METAR KOXC 200951Z AUTO 06003KT 10SM CLR 16/11 A2993 RMK AO2 SLP143 T01560106 =
2018-06-20 04:51 METAR KOXC 200851Z AUTO 06005KT 10SM CLR 17/10 A2992 RMK AO2 SLP139 T01670100
                 53005 =
2018-06-20 03:51 METAR KOXC 200751Z AUTO 06005KT 10SM CLR 17/11 A2991 RMK AO2 SLP135 T01670106 =
2018-06-20 02:51 METAR KOXC 200651Z AUTO 07003KT 10SM CLR 17/11 A2991 RMK AO2 SLP135 T01670111 =
2018-06-20 01:51 METAR KOXC 200551Z AUTO 02007KT 10SM CLR 18/11 A2990 RMK AO2 SLP133 T01780111
                 10239 20156 58002 =
2018-06-20 00:51 METAR KOXC 200451Z AUTO 32005KT 10SM CLR 17/10 A2991 RMK AO2 SLP136 T01720100
                 402780156 =
2018-06-19 23:51 METAR KOXC 200351Z AUTO 36007KT 10SM CLR 17/11 A2991 RMK AO2 SLP137 T01670111 =
2018-06-19 22:51 METAR KOXC 200251Z AUTO 35006KT 10SM CLR 16/12 A2991 RMK AO2 SLP135 T01560117
                 51017 =
2018-06-19 21:51 METAR KOXC 200151Z AUTO 36003KT 10SM CLR 19/13 A2990 RMK AO2 SLP134 T01890128 =
2018-06-19 20:51 METAR KOXC 200051Z 33003KT 10SM CLR 22/13 A2988 RMK AO2 SLP124 T02170133 =
2018-06-19 19:51 METAR KOXC 192351Z 32004KT 10SM CLR 24/13 A2986 RMK AO2 SLP117 T02390133 10278
                 20239 53008 =
2018-06-19 18:51 METAR KOXC 192251Z 31006KT 10SM CLR 26/13 A2985 RMK AO2 SLP112 T02560128 =
2018-06-19 17:51 METAR KOXC 192151Z 33006KT 10SM CLR 27/13 A2984 RMK AO2 SLP109 T02670128 =
2018-06-19 16:51 METAR KOXC 192051Z 34008G15KT 10SM CLR 27/13 A2983 RMK AO2 SLP106 T02720128
                 51004 =
2018-06-19 15:51 METAR KOXC 191951Z 32010G18KT 10SM CLR 27/12 A2982 RMK AO2 SLP104 T02720117 =
2018-06-19 14:51 METAR KOXC 191851Z 32011G16KT 10SM CLR 27/10 A2983 RMK AO2 SLP106 T02720100 =
2018-06-19 13:51 METAR KOXC 191751Z 32013G20KT 10SM CLR 27/12 A2982 RMK AO2 SLP103 T02670117
                 10272 20228 50001 =
2018-06-19 12:51 METAR KOXC 191651Z 34012G21KT 10SM CLR 27/13 A2983 RMK AO2 SLP105 T02670128 =
2018-06-19 11:51 METAR KOXC 191551Z 32009KT 270V340 10SM FEW030 26/15 A2983 RMK AO2 SLP106
                 T02610150 =
2018-06-19 10:51 METAR KOXC 191451Z 35016G22KT 10SM FEW035 25/16 A2982 RMK AO2 SLP102 T02500161
                 50008 =

Support USWX by starting your Amazon purchase here.